CheckWX is a tool to help pilots better visualize weather data.  It is not intended as a substitute for an official pre-flight weather briefing.

05:16:11 UTC

KCNB METAR
Myers Field Airport
Canby, Minnesota, USA
Current

1 hour ago

KCNB 240359Z AUTO 28017G22KT 7SM CLR M08/M11 A2978 RMK AO2
Observed
Feb-24 @ 03:59 UTC
Wind
  • 280° at 17 KTS
  • Gusting to 22 KTS
Visibility
7 SM
Flight Rules
VFR
Cloud Levels
  • Clear skies
Temperature
-8°C / 18°F
Dewpoint
-11°C / 12°F
Humidity
79%
Altimeter
29.78" Hg
Pressure
1008.42 hPa
Previous

2 hours ago

KCNB 240259Z AUTO 30014G19KT 270V340 10SM BKN110 M08/M10 A2978 RMK AO2
Observed
Feb-24 @ 02:59 UTC
Wind
  • 300° at 14 KTS
  • Gusting to 19 KTS
Visibility
10 SM
Flight Rules
VFR
Cloud Levels
  • Broken at 11,000' AGL
Temperature
-8°C / 18°F
Dewpoint
-10°C / 14°F
Humidity
86%
Altimeter
29.78" Hg
Pressure
1008.42 hPa
Previous

3 hours ago

KCNB 240159Z AUTO 30012G17KT 280V340 10SM OVC110 M07/M09 A2979 RMK AO2
Observed
Feb-24 @ 01:59 UTC
Wind
  • 300° at 12 KTS
  • Gusting to 17 KTS
Visibility
10 SM
Flight Rules
VFR
Cloud Levels
  • Overcast at 11,000' AGL
Temperature
-7°C / 19°F
Dewpoint
-9°C / 16°F
Humidity
86%
Altimeter
29.79" Hg
Pressure
1008.82 hPa